Time;durP1;ratioP1;P1;durP2;ratioP2;P2;SDS_P1;SDS_P2;PMS_P1;PMS_P2;Temp;Humidity;BMP_temperature;BMP_pressure;BME280_temperature;BME280_humidity;BME280_pressure;Samples;Min_cycle;Max_cycle;Signal;HPM_P1;HPM_P2
2024/01/07 00:05:01;;;;;;;11.70;7.90;;;;;;;-5.06;100.00;99354.83;433948;1254;143349;-69
2024/01/07 00:15:09;;;;;;;9.00;7.10;;;;;;;-5.12;100.00;99360.98;434178;1258;140242;-68
2024/01/07 00:25:15;;;;;;;13.60;8.60;;;;;;;-5.15;100.00;99371.75;438600;1255;140480;-68
2024/01/07 00:35:21;;;;;;;10.00;7.30;;;;;;;-5.19;100.00;99377.41;435540;1258;140207;-68
2024/01/07 00:45:27;;;;;;;8.80;7.50;;;;;;;-5.22;100.00;99379.45;437107;1255;139526;-68
2024/01/07 00:55:35;;;;;;;10.10;7.30;;;;;;;-5.32;100.00;99382.05;434283;1254;139153;-68
2024/01/07 01:05:41;;;;;;;12.50;8.60;;;;;;;-5.43;100.00;99388.05;435046;1258;139247;-61
2024/01/07 01:15:47;;;;;;;10.70;6.90;;;;;;;-5.52;100.00;99385.33;433698;1258;140637;-66
2024/01/07 01:25:53;;;;;;;8.30;6.50;;;;;;;-5.57;100.00;99383.80;434378;1257;139318;-63
2024/01/07 01:35:59;;;;;;;9.90;7.70;;;;;;;-5.63;100.00;99385.01;434299;1258;139702;-64
2024/01/07 01:46:05;;;;;;;9.00;6.40;;;;;;;-5.70;100.00;99381.94;434433;1258;139970;-63
2024/01/07 01:56:11;;;;;;;11.70;8.10;;;;;;;-5.73;100.00;99393.71;433962;1256;139554;-63
2024/01/07 02:06:18;;;;;;;9.20;7.70;;;;;;;-5.79;100.00;99391.50;433687;1255;140257;-64
2024/01/07 02:16:24;;;;;;;7.80;6.60;;;;;;;-5.84;100.00;99394.91;436077;1255;141965;-62
2024/01/07 02:26:30;;;;;;;9.70;6.30;;;;;;;-5.92;100.00;99393.90;433411;1254;316040;-63
2024/01/07 02:36:36;;;;;;;12.00;6.30;;;;;;;-5.97;100.00;99387.58;435444;1254;139623;-63
2024/01/07 02:46:42;;;;;;;9.80;7.60;;;;;;;-6.00;100.00;99392.20;433625;1256;140501;-65
2024/01/07 02:56:48;;;;;;;8.30;7.30;;;;;;;-6.06;100.00;99386.93;446701;1254;139690;-63
2024/01/07 03:06:53;;;;;;;10.10;8.00;;;;;;;-6.10;100.00;99391.02;434093;1254;140191;-62
2024/01/07 03:16:59;;;;;;;10.10;8.00;;;;;;;-6.17;100.00;99396.30;433457;1254;143617;-63
2024/01/07 03:27:06;;;;;;;8.90;7.90;;;;;;;-6.31;100.00;99397.64;433814;1256;139808;-63
2024/01/07 03:37:12;;;;;;;11.80;8.50;;;;;;;-6.46;100.00;99402.90;434479;1256;139777;-63
2024/01/07 03:47:17;;;;;;;9.40;8.10;;;;;;;-6.61;100.00;99409.34;433488;1258;139888;-64
2024/01/07 03:57:23;;;;;;;9.00;7.40;;;;;;;-6.66;100.00;99411.19;433857;1255;141585;-63
2024/01/07 04:07:29;;;;;;;8.70;7.50;;;;;;;-6.70;100.00;99421.90;433506;1258;139242;-62
2024/01/07 04:17:35;;;;;;;9.80;8.20;;;;;;;-6.85;100.00;99432.23;433913;1254;139681;-62
2024/01/07 04:27:41;;;;;;;10.10;7.80;;;;;;;-6.99;100.00;99436.41;433625;1254;139713;-64
2024/01/07 04:37:47;;;;;;;9.90;8.70;;;;;;;-7.14;100.00;99437.52;433702;1256;140090;-63
2024/01/07 04:47:52;;;;;;;10.10;8.00;;;;;;;-7.19;100.00;99440.73;434106;1256;139651;-63
2024/01/07 04:57:58;;;;;;;10.00;8.90;;;;;;;-7.27;100.00;99454.81;433450;1258;140006;-62
2024/01/07 05:08:06;;;;;;;12.90;9.70;;;;;;;-7.37;100.00;99460.88;434106;1258;140339;-63
2024/01/07 05:18:12;;;;;;;12.60;10.00;;;;;;;-7.48;100.00;99474.05;434366;1256;142218;-63
2024/01/07 05:28:20;;;;;;;9.70;8.60;;;;;;;-7.59;100.00;99480.94;433678;1258;142590;-63
2024/01/07 05:38:26;;;;;;;10.10;8.90;;;;;;;-7.64;100.00;99481.76;434359;1256;139799;-63
2024/01/07 05:48:45;;;;;;;12.00;9.10;;;;;;;-7.66;100.00;99481.07;433826;1257;140023;-62
2024/01/07 05:58:51;;;;;;;14.30;10.50;;;;;;;-7.73;100.00;99485.25;435156;1255;141201;-62
2024/01/07 06:08:57;;;;;;;11.80;8.80;;;;;;;-7.74;100.00;99481.15;433354;1258;141239;-62
2024/01/07 06:19:03;;;;;;;13.30;10.30;;;;;;;-7.81;100.00;99489.09;434056;1255;141193;-62
2024/01/07 06:29:09;;;;;;;12.60;9.80;;;;;;;-7.95;100.00;99498.65;433614;1257;141169;-63
2024/01/07 06:39:15;;;;;;;11.60;10.30;;;;;;;-8.10;100.00;99516.67;433474;1255;141108;-63
2024/01/07 06:49:21;;;;;;;10.40;9.30;;;;;;;-8.20;100.00;99530.67;433897;1258;141016;-62
2024/01/07 06:59:28;;;;;;;13.60;11.50;;;;;;;-8.25;100.00;99536.55;433584;1255;141548;-62
2024/01/07 07:09:34;;;;;;;14.70;10.60;;;;;;;-8.34;100.00;99545.97;434393;1258;140824;-62
2024/01/07 07:19:40;;;;;;;12.30;9.60;;;;;;;-8.38;100.00;99559.15;436996;1258;139735;-63
2024/01/07 07:29:50;;;;;;;10.60;9.50;;;;;;;-8.40;100.00;99570.68;434028;1256;141095;-64
2024/01/07 07:39:56;;;;;;;11.70;10.40;;;;;;;-8.40;100.00;99573.92;433917;1256;140682;-64
2024/01/07 07:50:02;;;;;;;13.10;10.80;;;;;;;-8.39;100.00;99583.59;434377;1258;141457;-61
2024/01/07 08:00:12;;;;;;;12.30;10.90;;;;;;;-8.37;100.00;99587.71;438571;1255;140834;-62
2024/01/07 08:10:18;;;;;;;14.80;11.00;;;;;;;-8.28;100.00;99583.73;439845;1255;140422;-63
2024/01/07 08:20:24;;;;;;;12.70;10.60;;;;;;;-8.17;100.00;99598.14;433867;1256;140791;-62
2024/01/07 08:30:30;;;;;;;13.40;10.40;;;;;;;-8.08;100.00;99600.80;433722;1256;140895;-62
2024/01/07 08:40:36;;;;;;;13.70;11.10;;;;;;;-7.99;100.00;99606.52;433389;1258;140212;-63
2024/01/07 08:50:42;;;;;;;13.70;12.00;;;;;;;-7.88;100.00;99616.65;433866;1258;141093;-62
2024/01/07 09:00:47;;;;;;;15.20;13.20;;;;;;;-7.76;100.00;99617.30;433564;1256;140276;-63
2024/01/07 09:10:53;;;;;;;15.30;12.20;;;;;;;-7.68;100.00;99627.92;433882;1258;140590;-64
2024/01/07 09:20:59;;;;;;;14.20;12.10;;;;;;;-7.67;100.00;99630.31;433692;1256;140940;-63
2024/01/07 09:31:05;;;;;;;15.80;12.30;;;;;;;-7.63;100.00;99640.05;433784;1256;140118;-62
2024/01/07 09:41:11;;;;;;;15.10;12.50;;;;;;;-7.54;100.00;99640.82;433926;1256;139755;-63
2024/01/07 09:51:22;;;;;;;17.00;14.50;;;;;;;-7.53;100.00;99639.48;433538;1258;141033;-64
2024/01/07 10:01:28;;;;;;;19.00;14.20;;;;;;;-7.43;100.00;99625.80;436030;1256;140770;-62
2024/01/07 10:11:35;;;;;;;16.80;12.80;;;;;;;-7.32;100.00;99627.44;434126;1256;140519;-62
2024/01/07 10:21:41;;;;;;;17.20;14.20;;;;;;;-7.30;100.00;99622.52;433990;1258;141522;-63
2024/01/07 10:31:47;;;;;;;17.90;14.50;;;;;;;-7.18;100.00;99629.43;433860;1258;140252;-63
2024/01/07 10:41:57;;;;;;;20.30;15.50;;;;;;;-7.14;100.00;99631.00;433660;1258;140221;-62
2024/01/07 10:52:07;;;;;;;16.30;13.60;;;;;;;-7.08;100.00;99627.48;437744;1258;140847;-62
2024/01/07 11:02:14;;;;;;;12.90;11.50;;;;;;;-7.01;100.00;99623.61;433700;1256;140283;-63
2024/01/07 11:12:21;;;;;;;16.30;13.70;;;;;;;-7.05;100.00;99613.19;434046;1256;139900;-63
2024/01/07 11:22:28;;;;;;;15.60;12.20;;;;;;;-6.98;100.00;99607.63;433828;1256;142337;-63
2024/01/07 11:32:36;;;;;;;12.50;10.40;;;;;;;-6.84;100.00;99603.98;435256;1256;140466;-63
2024/01/07 11:42:43;;;;;;;14.00;11.80;;;;;;;-6.69;100.00;99603.92;437559;1258;140426;-63
2024/01/07 11:52:49;;;;;;;14.60;11.90;;;;;;;-6.59;100.00;99605.02;436028;1257;140861;-63
2024/01/07 12:02:55;;;;;;;12.80;10.30;;;;;;;-6.51;100.00;99604.55;433984;1258;141682;-63
2024/01/07 12:13:01;;;;;;;15.80;11.20;;;;;;;-6.56;100.00;99606.05;433948;1258;140421;-64
2024/01/07 12:23:11;;;;;;;16.50;12.00;;;;;;;-6.78;100.00;99614.94;433929;1257;141618;-63
2024/01/07 12:33:20;;;;;;;13.00;11.40;;;;;;;-6.85;100.00;99614.21;439062;1258;142083;-62
2024/01/07 12:43:26;;;;;;;12.30;10.70;;;;;;;-6.90;100.00;99626.42;439723;1258;140398;-64
2024/01/07 12:53:32;;;;;;;16.90;13.50;;;;;;;-7.09;100.00;99627.13;436482;1256;139822;-66
2024/01/07 13:03:38;;;;;;;15.30;11.70;;;;;;;-7.25;100.00;99639.55;435160;1259;140402;-68
2024/01/07 13:13:44;;;;;;;15.90;12.30;;;;;;;-7.43;100.00;99656.91;433573;1258;140976;-66
2024/01/07 13:23:50;;;;;;;13.00;11.60;;;;;;;-7.62;100.00;99668.95;438820;1258;140243;-67
2024/01/07 13:33:56;;;;;;;18.00;14.40;;;;;;;-7.74;100.00;99676.65;433828;1259;141798;-66
2024/01/07 13:44:03;;;;;;;13.90;12.40;;;;;;;-7.94;100.00;99681.33;442216;1254;140261;-67
2024/01/07 13:54:10;;;;;;;17.40;12.30;;;;;;;-8.08;100.00;99685.92;434059;1259;140537;-66
2024/01/07 14:04:16;;;;;;;17.00;12.60;;;;;;;-8.23;100.00;99692.50;434686;1258;140476;-66
2024/01/07 14:14:22;;;;;;;15.00;13.30;;;;;;;-8.41;100.00;99706.34;434324;1260;141799;-66
2024/01/07 14:24:28;;;;;;;15.80;13.80;;;;;;;-8.57;100.00;99711.06;433861;1254;219679;-66
2024/01/07 14:34:34;;;;;;;16.50;13.30;;;;;;;-8.66;100.00;99719.92;434382;1258;141666;-66
2024/01/07 14:44:40;;;;;;;20.80;14.50;;;;;;;-8.69;100.00;99729.52;433559;1260;140174;-64
2024/01/07 14:54:56;;;;;;;19.00;14.60;;;;;;;-8.74;100.00;99739.31;433838;1259;140465;-65
2024/01/07 15:05:03;;;;;;;18.90;14.70;;;;;;;-8.83;100.00;99738.80;435148;1258;140547;-67
2024/01/07 15:15:11;;;;;;;17.40;13.70;;;;;;;-8.90;100.00;99744.80;435488;1258;140859;-67
2024/01/07 15:25:17;;;;;;;17.20;14.70;;;;;;;-8.94;100.00;99745.40;438365;1258;139907;-66
2024/01/07 15:35:23;;;;;;;20.50;14.40;;;;;;;-8.94;100.00;99750.14;434197;1257;141418;-67
2024/01/07 15:45:29;;;;;;;18.70;15.10;;;;;;;-8.95;100.00;99760.49;433700;1259;143002;-66
2024/01/07 15:55:35;;;;;;;21.20;15.30;;;;;;;-8.96;100.00;99766.41;433826;1255;140507;-66
2024/01/07 16:05:41;;;;;;;18.80;14.00;;;;;;;-8.97;100.00;99781.14;433594;1259;140798;-67
2024/01/07 16:15:47;;;;;;;17.90;14.10;;;;;;;-9.00;100.00;99787.38;433789;1258;141413;-66
2024/01/07 16:25:52;;;;;;;16.00;12.70;;;;;;;-9.05;100.00;99790.50;433779;1259;141479;-66
2024/01/07 16:35:59;;;;;;;16.40;13.40;;;;;;;-9.06;100.00;99806.11;433902;1259;140340;-65
2024/01/07 16:46:05;;;;;;;17.80;14.70;;;;;;;-9.09;100.00;99816.39;433984;1254;141852;-64
2024/01/07 16:56:13;;;;;;;15.30;12.30;;;;;;;-9.10;100.00;99824.67;437564;1257;141214;-67
2024/01/07 17:06:21;;;;;;;20.60;14.10;;;;;;;-9.12;100.00;99835.48;436643;1257;140682;-66
2024/01/07 17:16:28;;;;;;;17.20;12.50;;;;;;;-9.16;100.00;99841.18;433479;1258;141103;-66
2024/01/07 17:26:34;;;;;;;14.00;11.50;;;;;;;-9.24;100.00;99835.93;437169;1257;139848;-66
2024/01/07 17:36:40;;;;;;;16.20;13.10;;;;;;;-9.27;100.00;99851.64;435995;1260;140308;-66
2024/01/07 17:46:46;;;;;;;16.00;12.40;;;;;;;-9.33;100.00;99854.76;434296;1256;140630;-65
2024/01/07 17:56:52;;;;;;;14.60;12.40;;;;;;;-9.40;100.00;99868.16;433750;1259;141870;-67
2024/01/07 18:06:58;;;;;;;16.80;12.70;;;;;;;-9.49;100.00;99881.52;433588;1259;141195;-65
2024/01/07 18:17:03;;;;;;;17.50;13.80;;;;;;;-9.52;100.00;99889.11;434366;1256;141337;-65
2024/01/07 18:27:09;;;;;;;16.80;12.60;;;;;;;-9.57;100.00;99898.48;440056;1254;140620;-65
2024/01/07 18:37:16;;;;;;;16.90;14.20;;;;;;;-9.62;100.00;99918.20;433659;1254;141612;-66
2024/01/07 18:47:22;;;;;;;16.00;13.10;;;;;;;-9.68;100.00;99935.34;442248;1255;142678;-66
2024/01/07 18:57:28;;;;;;;17.10;13.30;;;;;;;-9.74;100.00;99944.70;433505;1256;140767;-66
2024/01/07 19:07:36;;;;;;;19.20;14.40;;;;;;;-9.74;100.00;99946.56;437500;1254;141091;-66
2024/01/07 19:17:47;;;;;;;20.10;14.20;;;;;;;-9.73;100.00;99959.30;434339;1259;141083;-62
2024/01/07 19:27:53;;;;;;;22.00;15.80;;;;;;;-9.79;100.00;99959.16;436006;1256;141379;-62
2024/01/07 19:37:59;;;;;;;22.00;16.50;;;;;;;-9.80;100.00;99968.77;438832;1255;141177;-62
2024/01/07 19:48:06;;;;;;;17.30;13.90;;;;;;;-9.87;100.00;99974.52;436930;1254;141215;-62
2024/01/07 19:58:16;;;;;;;18.80;12.60;;;;;;;-10.03;100.00;99987.35;437780;1254;141294;-63
2024/01/07 20:08:22;;;;;;;18.70;13.60;;;;;;;-10.18;100.00;99997.45;436282;1254;141993;-61
2024/01/07 20:18:28;;;;;;;17.90;11.90;;;;;;;-10.40;99.50;100007.22;436296;1258;140128;-61
2024/01/07 20:28:35;;;;;;;14.40;12.10;;;;;;;-10.58;99.33;100015.85;434222;1254;140636;-63
2024/01/07 20:38:41;;;;;;;15.80;11.90;;;;;;;-10.74;99.23;100029.80;446328;1254;141457;-62
2024/01/07 20:48:47;;;;;;;18.50;12.80;;;;;;;-10.84;99.25;100038.46;433854;1258;140263;-62
2024/01/07 20:58:53;;;;;;;22.30;14.10;;;;;;;-10.86;98.96;100049.21;434135;1254;141976;-62
2024/01/07 21:09:00;;;;;;;18.70;13.90;;;;;;;-10.90;99.09;100070.42;433665;1255;140702;-63
2024/01/07 21:19:05;;;;;;;18.30;12.20;;;;;;;-10.97;98.72;100081.20;442709;1255;140860;-61
2024/01/07 21:29:12;;;;;;;16.50;12.60;;;;;;;-11.00;98.68;100089.56;434382;1256;140908;-61
2024/01/07 21:39:18;;;;;;;16.40;13.40;;;;;;;-11.02;98.51;100097.96;436823;1255;141464;-63
2024/01/07 21:49:23;;;;;;;17.70;12.10;;;;;;;-11.13;98.10;100104.22;445694;1254;140989;-61
2024/01/07 21:59:29;;;;;;;27.50;16.40;;;;;;;-11.22;98.22;100112.52;434329;1254;140013;-62
2024/01/07 22:09:36;;;;;;;16.80;14.20;;;;;;;-11.31;97.83;100108.71;434322;1254;140679;-61
2024/01/07 22:19:42;;;;;;;17.60;14.00;;;;;;;-11.34;97.87;100113.34;436861;1255;141073;-62
2024/01/07 22:29:47;;;;;;;20.90;15.30;;;;;;;-11.39;97.92;100123.81;433969;1256;141151;-62
2024/01/07 22:39:53;;;;;;;18.90;13.60;;;;;;;-11.53;97.31;100128.59;433853;1258;140031;-61
2024/01/07 22:49:59;;;;;;;20.50;15.40;;;;;;;-11.68;97.27;100131.81;433999;1255;142623;-61
2024/01/07 23:00:10;;;;;;;20.40;14.00;;;;;;;-11.76;97.19;100148.42;437115;1255;140126;-61
2024/01/07 23:10:20;;;;;;;20.80;14.90;;;;;;;-11.80;97.11;100162.80;439911;1255;141133;-60
2024/01/07 23:20:26;;;;;;;20.10;12.50;;;;;;;-11.91;96.71;100172.68;434408;1258;140730;-62
2024/01/07 23:30:32;;;;;;;16.50;12.90;;;;;;;-11.94;96.98;100167.89;434371;1258;140275;-60
2024/01/07 23:40:38;;;;;;;19.70;13.60;;;;;;;-11.96;97.04;100176.25;437843;1254;140336;-62
2024/01/07 23:50:44;;;;;;;20.10;14.40;;;;;;;-11.99;97.00;100173.45;441643;1255;141636;-60
